sensor_id;sensor_type;location;lat;lon;timestamp;P1;durP1;ratioP1;P2;durP2;ratioP2
81656;SDS011;71067;51.482;-0.580;2023-08-08T00:01:39;3.37;;;1.80;;
81656;SDS011;71067;51.482;-0.580;2023-08-08T00:04:07;5.65;;;1.30;;
81656;SDS011;71067;51.482;-0.580;2023-08-08T00:06:33;3.65;;;1.58;;
81656;SDS011;71067;51.482;-0.580;2023-08-08T00:08:59;4.90;;;1.58;;
81656;SDS011;71067;51.482;-0.580;2023-08-08T00:11:24;4.20;;;1.35;;
81656;SDS011;71067;51.482;-0.580;2023-08-08T00:13:49;3.28;;;1.63;;
81656;SDS011;71067;51.482;-0.580;2023-08-08T00:16:15;3.13;;;1.20;;
81656;SDS011;71067;51.482;-0.580;2023-08-08T00:18:40;3.58;;;1.60;;
81656;SDS011;71067;51.482;-0.580;2023-08-08T00:21:05;4.53;;;1.83;;
81656;SDS011;71067;51.482;-0.580;2023-08-08T00:23:31;3.05;;;1.35;;
81656;SDS011;71067;51.482;-0.580;2023-08-08T00:25:56;3.22;;;1.23;;
81656;SDS011;71067;51.482;-0.580;2023-08-08T00:28:21;3.63;;;1.57;;
81656;SDS011;71067;51.482;-0.580;2023-08-08T00:30:47;3.40;;;1.33;;
81656;SDS011;71067;51.482;-0.580;2023-08-08T00:33:12;4.00;;;1.38;;
81656;SDS011;71067;51.482;-0.580;2023-08-08T00:35:37;3.00;;;1.40;;
81656;SDS011;71067;51.482;-0.580;2023-08-08T00:38:03;2.40;;;1.17;;
81656;SDS011;71067;51.482;-0.580;2023-08-08T00:40:28;3.13;;;1.23;;
81656;SDS011;71067;51.482;-0.580;2023-08-08T00:42:53;4.57;;;1.30;;
81656;SDS011;71067;51.482;-0.580;2023-08-08T00:45:19;4.30;;;1.50;;
81656;SDS011;71067;51.482;-0.580;2023-08-08T00:47:44;5.65;;;1.30;;
81656;SDS011;71067;51.482;-0.580;2023-08-08T00:50:09;2.95;;;1.45;;
81656;SDS011;71067;51.482;-0.580;2023-08-08T00:52:35;3.50;;;1.35;;
81656;SDS011;71067;51.482;-0.580;2023-08-08T00:55:03;3.88;;;1.50;;
81656;SDS011;71067;51.482;-0.580;2023-08-08T00:57:29;5.43;;;1.65;;
81656;SDS011;71067;51.482;-0.580;2023-08-08T00:59:55;4.45;;;1.40;;
81656;SDS011;71067;51.482;-0.580;2023-08-08T01:02:20;3.40;;;1.42;;
81656;SDS011;71067;51.482;-0.580;2023-08-08T01:04:46;5.10;;;1.80;;
81656;SDS011;71067;51.482;-0.580;2023-08-08T01:10:29;2.85;;;1.10;;
81656;SDS011;71067;51.482;-0.580;2023-08-08T01:13:05;4.95;;;1.50;;
81656;SDS011;71067;51.482;-0.580;2023-08-08T01:15:33;2.88;;;1.40;;
81656;SDS011;71067;51.482;-0.580;2023-08-08T01:18:04;4.45;;;1.70;;
81656;SDS011;71067;51.482;-0.580;2023-08-08T01:20:31;4.97;;;1.70;;
81656;SDS011;71067;51.482;-0.580;2023-08-08T01:25:47;4.10;;;1.80;;
81656;SDS011;71067;51.482;-0.580;2023-08-08T01:28:13;3.22;;;1.30;;
81656;SDS011;71067;51.482;-0.580;2023-08-08T01:30:38;2.78;;;1.35;;
81656;SDS011;71067;51.482;-0.580;2023-08-08T01:33:04;5.22;;;1.52;;
81656;SDS011;71067;51.482;-0.580;2023-08-08T01:35:30;4.60;;;1.40;;
81656;SDS011;71067;51.482;-0.580;2023-08-08T01:38:43;2.55;;;1.45;;
81656;SDS011;71067;51.482;-0.580;2023-08-08T01:40:52;4.35;;;1.63;;
81656;SDS011;71067;51.482;-0.580;2023-08-08T01:43:20;2.55;;;1.20;;
81656;SDS011;71067;51.482;-0.580;2023-08-08T01:45:46;6.05;;;1.77;;
81656;SDS011;71067;51.482;-0.580;2023-08-08T01:48:11;3.22;;;1.20;;
81656;SDS011;71067;51.482;-0.580;2023-08-08T01:50:37;4.93;;;1.42;;
81656;SDS011;71067;51.482;-0.580;2023-08-08T01:53:03;3.22;;;1.48;;
81656;SDS011;71067;51.482;-0.580;2023-08-08T01:55:29;2.45;;;1.30;;
81656;SDS011;71067;51.482;-0.580;2023-08-08T01:57:55;3.35;;;1.30;;
81656;SDS011;71067;51.482;-0.580;2023-08-08T02:00:21;5.40;;;1.63;;
81656;SDS011;71067;51.482;-0.580;2023-08-08T02:02:46;6.57;;;1.40;;
81656;SDS011;71067;51.482;-0.580;2023-08-08T02:05:11;3.93;;;1.40;;
81656;SDS011;71067;51.482;-0.580;2023-08-08T02:07:37;4.23;;;1.40;;
81656;SDS011;71067;51.482;-0.580;2023-08-08T02:10:02;3.42;;;1.52;;
81656;SDS011;71067;51.482;-0.580;2023-08-08T02:12:28;3.95;;;1.30;;
81656;SDS011;71067;51.482;-0.580;2023-08-08T02:14:55;3.00;;;1.17;;
81656;SDS011;71067;51.482;-0.580;2023-08-08T02:17:21;4.00;;;1.40;;
81656;SDS011;71067;51.482;-0.580;2023-08-08T02:19:46;4.35;;;1.80;;
81656;SDS011;71067;51.482;-0.580;2023-08-08T02:22:11;3.10;;;1.30;;
81656;SDS011;71067;51.482;-0.580;2023-08-08T02:24:37;3.80;;;1.63;;
81656;SDS011;71067;51.482;-0.580;2023-08-08T02:27:02;3.93;;;1.33;;
81656;SDS011;71067;51.482;-0.580;2023-08-08T02:29:27;4.68;;;1.30;;
81656;SDS011;71067;51.482;-0.580;2023-08-08T02:31:53;4.30;;;1.40;;
81656;SDS011;71067;51.482;-0.580;2023-08-08T02:34:18;3.20;;;1.30;;
81656;SDS011;71067;51.482;-0.580;2023-08-08T02:36:43;2.93;;;1.30;;
81656;SDS011;71067;51.482;-0.580;2023-08-08T02:39:09;4.75;;;1.70;;
81656;SDS011;71067;51.482;-0.580;2023-08-08T02:41:34;4.10;;;1.70;;
81656;SDS011;71067;51.482;-0.580;2023-08-08T02:43:59;3.08;;;1.30;;
81656;SDS011;71067;51.482;-0.580;2023-08-08T02:46:25;4.57;;;1.50;;
81656;SDS011;71067;51.482;-0.580;2023-08-08T02:48:50;2.95;;;1.27;;
81656;SDS011;71067;51.482;-0.580;2023-08-08T02:51:15;2.80;;;1.20;;
81656;SDS011;71067;51.482;-0.580;2023-08-08T02:53:41;2.37;;;1.10;;
81656;SDS011;71067;51.482;-0.580;2023-08-08T02:56:06;4.50;;;1.55;;
81656;SDS011;71067;51.482;-0.580;2023-08-08T02:58:31;3.97;;;1.40;;
81656;SDS011;71067;51.482;-0.580;2023-08-08T03:00:57;5.23;;;1.60;;
81656;SDS011;71067;51.482;-0.580;2023-08-08T03:03:22;4.20;;;1.70;;
81656;SDS011;71067;51.482;-0.580;2023-08-08T03:05:47;3.83;;;1.48;;
81656;SDS011;71067;51.482;-0.580;2023-08-08T03:08:12;5.00;;;1.52;;
81656;SDS011;71067;51.482;-0.580;2023-08-08T03:10:38;3.83;;;1.50;;
81656;SDS011;71067;51.482;-0.580;2023-08-08T03:13:03;6.50;;;1.97;;
81656;SDS011;71067;51.482;-0.580;2023-08-08T03:15:28;4.72;;;1.60;;
81656;SDS011;71067;51.482;-0.580;2023-08-08T03:17:54;4.67;;;1.60;;
81656;SDS011;71067;51.482;-0.580;2023-08-08T03:20:20;2.72;;;1.30;;
81656;SDS011;71067;51.482;-0.580;2023-08-08T03:22:45;3.25;;;1.50;;
81656;SDS011;71067;51.482;-0.580;2023-08-08T03:25:11;4.77;;;1.40;;
81656;SDS011;71067;51.482;-0.580;2023-08-08T03:27:36;3.88;;;1.50;;
81656;SDS011;71067;51.482;-0.580;2023-08-08T03:30:02;4.00;;;1.37;;
81656;SDS011;71067;51.482;-0.580;2023-08-08T03:32:27;2.88;;;1.30;;
81656;SDS011;71067;51.482;-0.580;2023-08-08T03:34:53;6.00;;;1.65;;
81656;SDS011;71067;51.482;-0.580;2023-08-08T03:37:18;4.57;;;1.58;;
81656;SDS011;71067;51.482;-0.580;2023-08-08T03:39:44;3.67;;;1.48;;
81656;SDS011;71067;51.482;-0.580;2023-08-08T03:42:09;5.20;;;1.60;;
81656;SDS011;71067;51.482;-0.580;2023-08-08T03:44:34;4.13;;;1.83;;
81656;SDS011;71067;51.482;-0.580;2023-08-08T03:46:59;6.45;;;1.88;;
81656;SDS011;71067;51.482;-0.580;2023-08-08T03:49:25;3.50;;;1.45;;
81656;SDS011;71067;51.482;-0.580;2023-08-08T03:51:50;3.28;;;1.30;;
81656;SDS011;71067;51.482;-0.580;2023-08-08T03:54:16;2.90;;;1.40;;
81656;SDS011;71067;51.482;-0.580;2023-08-08T03:56:43;2.53;;;1.50;;
81656;SDS011;71067;51.482;-0.580;2023-08-08T03:59:08;5.80;;;1.73;;
81656;SDS011;71067;51.482;-0.580;2023-08-08T04:01:33;3.53;;;1.70;;
81656;SDS011;71067;51.482;-0.580;2023-08-08T04:03:59;4.47;;;1.70;;
81656;SDS011;71067;51.482;-0.580;2023-08-08T04:06:24;2.67;;;1.27;;
81656;SDS011;71067;51.482;-0.580;2023-08-08T04:08:49;4.00;;;1.60;;
81656;SDS011;71067;51.482;-0.580;2023-08-08T04:11:15;4.45;;;1.50;;
81656;SDS011;71067;51.482;-0.580;2023-08-08T04:13:40;4.97;;;1.52;;
81656;SDS011;71067;51.482;-0.580;2023-08-08T04:16:06;3.95;;;1.55;;
81656;SDS011;71067;51.482;-0.580;2023-08-08T04:18:31;2.38;;;1.33;;
81656;SDS011;71067;51.482;-0.580;2023-08-08T04:20:56;3.43;;;1.90;;
81656;SDS011;71067;51.482;-0.580;2023-08-08T04:23:22;3.23;;;1.33;;
81656;SDS011;71067;51.482;-0.580;2023-08-08T04:25:50;3.13;;;1.50;;
81656;SDS011;71067;51.482;-0.580;2023-08-08T04:28:15;3.65;;;1.73;;
81656;SDS011;71067;51.482;-0.580;2023-08-08T04:30:41;4.55;;;1.67;;
81656;SDS011;71067;51.482;-0.580;2023-08-08T04:33:06;2.90;;;1.43;;
81656;SDS011;71067;51.482;-0.580;2023-08-08T04:35:31;3.25;;;1.27;;
81656;SDS011;71067;51.482;-0.580;2023-08-08T04:37:57;4.60;;;1.58;;
81656;SDS011;71067;51.482;-0.580;2023-08-08T04:40:22;2.78;;;1.50;;
81656;SDS011;71067;51.482;-0.580;2023-08-08T04:42:47;3.03;;;1.60;;
81656;SDS011;71067;51.482;-0.580;2023-08-08T04:45:13;3.37;;;1.70;;
81656;SDS011;71067;51.482;-0.580;2023-08-08T04:47:39;4.88;;;1.50;;
81656;SDS011;71067;51.482;-0.580;2023-08-08T04:50:04;2.88;;;1.40;;
81656;SDS011;71067;51.482;-0.580;2023-08-08T04:52:30;3.35;;;1.70;;
81656;SDS011;71067;51.482;-0.580;2023-08-08T04:54:56;4.38;;;1.63;;
81656;SDS011;71067;51.482;-0.580;2023-08-08T04:57:21;4.13;;;1.70;;
81656;SDS011;71067;51.482;-0.580;2023-08-08T04:59:46;3.20;;;1.45;;
81656;SDS011;71067;51.482;-0.580;2023-08-08T05:02:11;3.13;;;1.73;;
81656;SDS011;71067;51.482;-0.580;2023-08-08T05:04:38;5.03;;;1.70;;
81656;SDS011;71067;51.482;-0.580;2023-08-08T05:07:03;4.38;;;1.50;;
81656;SDS011;71067;51.482;-0.580;2023-08-08T05:09:29;3.35;;;1.63;;
81656;SDS011;71067;51.482;-0.580;2023-08-08T05:11:54;4.55;;;1.50;;
81656;SDS011;71067;51.482;-0.580;2023-08-08T05:14:19;4.23;;;1.87;;
81656;SDS011;71067;51.482;-0.580;2023-08-08T05:16:45;3.30;;;1.60;;
81656;SDS011;71067;51.482;-0.580;2023-08-08T05:19:11;7.90;;;1.80;;
81656;SDS011;71067;51.482;-0.580;2023-08-08T05:21:36;4.18;;;1.85;;
81656;SDS011;71067;51.482;-0.580;2023-08-08T05:24:02;5.45;;;1.63;;
81656;SDS011;71067;51.482;-0.580;2023-08-08T05:26:28;6.10;;;1.80;;
81656;SDS011;71067;51.482;-0.580;2023-08-08T05:28:53;3.50;;;1.40;;
81656;SDS011;71067;51.482;-0.580;2023-08-08T05:31:18;3.90;;;1.92;;
81656;SDS011;71067;51.482;-0.580;2023-08-08T05:33:44;3.57;;;2.00;;
81656;SDS011;71067;51.482;-0.580;2023-08-08T05:36:09;3.50;;;1.50;;
81656;SDS011;71067;51.482;-0.580;2023-08-08T05:38:34;4.07;;;1.63;;
81656;SDS011;71067;51.482;-0.580;2023-08-08T05:40:59;4.93;;;1.70;;
81656;SDS011;71067;51.482;-0.580;2023-08-08T05:43:25;3.80;;;2.20;;
81656;SDS011;71067;51.482;-0.580;2023-08-08T05:45:52;2.83;;;1.65;;
81656;SDS011;71067;51.482;-0.580;2023-08-08T05:48:18;3.75;;;1.52;;
81656;SDS011;71067;51.482;-0.580;2023-08-08T05:50:43;4.57;;;1.90;;
81656;SDS011;71067;51.482;-0.580;2023-08-08T05:53:08;5.33;;;2.03;;
81656;SDS011;71067;51.482;-0.580;2023-08-08T05:55:33;5.47;;;1.80;;
81656;SDS011;71067;51.482;-0.580;2023-08-08T05:57:59;4.27;;;1.80;;
81656;SDS011;71067;51.482;-0.580;2023-08-08T06:00:24;3.78;;;1.73;;
81656;SDS011;71067;51.482;-0.580;2023-08-08T06:02:50;3.28;;;1.50;;
81656;SDS011;71067;51.482;-0.580;2023-08-08T06:05:19;2.92;;;1.45;;
81656;SDS011;71067;51.482;-0.580;2023-08-08T06:07:46;4.63;;;1.90;;
81656;SDS011;71067;51.482;-0.580;2023-08-08T06:10:12;4.38;;;1.50;;
81656;SDS011;71067;51.482;-0.580;2023-08-08T06:12:37;2.50;;;1.40;;
81656;SDS011;71067;51.482;-0.580;2023-08-08T06:15:03;3.13;;;1.30;;
81656;SDS011;71067;51.482;-0.580;2023-08-08T06:17:29;6.85;;;1.92;;
81656;SDS011;71067;51.482;-0.580;2023-08-08T06:19:54;3.35;;;1.38;;
81656;SDS011;71067;51.482;-0.580;2023-08-08T06:22:21;4.03;;;1.58;;
81656;SDS011;71067;51.482;-0.580;2023-08-08T06:24:47;4.90;;;1.95;;
81656;SDS011;71067;51.482;-0.580;2023-08-08T06:27:12;3.78;;;1.83;;
81656;SDS011;71067;51.482;-0.580;2023-08-08T06:29:38;4.03;;;1.60;;
81656;SDS011;71067;51.482;-0.580;2023-08-08T06:32:04;3.30;;;1.50;;
81656;SDS011;71067;51.482;-0.580;2023-08-08T06:34:29;4.38;;;1.67;;
81656;SDS011;71067;51.482;-0.580;2023-08-08T06:36:54;5.00;;;2.13;;
81656;SDS011;71067;51.482;-0.580;2023-08-08T06:39:20;2.30;;;1.40;;
81656;SDS011;71067;51.482;-0.580;2023-08-08T06:41:46;3.72;;;1.70;;
81656;SDS011;71067;51.482;-0.580;2023-08-08T06:44:12;3.53;;;1.92;;
81656;SDS011;71067;51.482;-0.580;2023-08-08T06:46:37;3.90;;;1.88;;
81656;SDS011;71067;51.482;-0.580;2023-08-08T06:49:03;5.97;;;1.60;;
81656;SDS011;71067;51.482;-0.580;2023-08-08T06:51:29;3.50;;;1.60;;
81656;SDS011;71067;51.482;-0.580;2023-08-08T06:53:54;3.15;;;1.30;;
81656;SDS011;71067;51.482;-0.580;2023-08-08T06:56:20;4.40;;;1.65;;
81656;SDS011;71067;51.482;-0.580;2023-08-08T06:58:45;3.50;;;1.38;;
81656;SDS011;71067;51.482;-0.580;2023-08-08T07:01:11;3.10;;;1.33;;
81656;SDS011;71067;51.482;-0.580;2023-08-08T07:03:36;3.50;;;1.30;;
81656;SDS011;71067;51.482;-0.580;2023-08-08T07:06:04;3.08;;;1.15;;
81656;SDS011;71067;51.482;-0.580;2023-08-08T07:08:30;4.68;;;1.50;;
81656;SDS011;71067;51.482;-0.580;2023-08-08T07:10:57;3.28;;;1.35;;
81656;SDS011;71067;51.482;-0.580;2023-08-08T07:13:23;2.97;;;1.33;;
81656;SDS011;71067;51.482;-0.580;2023-08-08T07:15:48;3.00;;;1.30;;
81656;SDS011;71067;51.482;-0.580;2023-08-08T07:18:14;4.03;;;1.50;;
81656;SDS011;71067;51.482;-0.580;2023-08-08T07:20:40;4.15;;;1.33;;
81656;SDS011;71067;51.482;-0.580;2023-08-08T07:23:05;2.45;;;1.38;;
81656;SDS011;71067;51.482;-0.580;2023-08-08T07:25:31;2.58;;;1.27;;
81656;SDS011;71067;51.482;-0.580;2023-08-08T07:27:56;3.42;;;1.90;;
81656;SDS011;71067;51.482;-0.580;2023-08-08T07:30:22;3.03;;;1.70;;
81656;SDS011;71067;51.482;-0.580;2023-08-08T07:32:47;2.40;;;1.60;;
81656;SDS011;71067;51.482;-0.580;2023-08-08T07:35:14;2.42;;;1.55;;
81656;SDS011;71067;51.482;-0.580;2023-08-08T07:37:41;3.67;;;1.60;;
81656;SDS011;71067;51.482;-0.580;2023-08-08T07:40:13;4.78;;;1.60;;
81656;SDS011;71067;51.482;-0.580;2023-08-08T07:42:47;3.40;;;1.30;;
81656;SDS011;71067;51.482;-0.580;2023-08-08T07:45:16;3.17;;;1.83;;
81656;SDS011;71067;51.482;-0.580;2023-08-08T07:47:57;3.45;;;1.42;;
81656;SDS011;71067;51.482;-0.580;2023-08-08T07:50:24;3.90;;;1.70;;
81656;SDS011;71067;51.482;-0.580;2023-08-08T07:52:51;4.90;;;2.05;;
81656;SDS011;71067;51.482;-0.580;2023-08-08T07:55:20;4.35;;;2.00;;
81656;SDS011;71067;51.482;-0.580;2023-08-08T07:57:47;5.57;;;1.92;;
81656;SDS011;71067;51.482;-0.580;2023-08-08T08:00:15;6.05;;;2.03;;
81656;SDS011;71067;51.482;-0.580;2023-08-08T08:02:46;4.72;;;2.00;;
81656;SDS011;71067;51.482;-0.580;2023-08-08T08:05:13;4.90;;;2.20;;
81656;SDS011;71067;51.482;-0.580;2023-08-08T08:07:41;3.08;;;1.70;;
81656;SDS011;71067;51.482;-0.580;2023-08-08T08:10:10;3.63;;;2.15;;
81656;SDS011;71067;51.482;-0.580;2023-08-08T08:12:39;5.10;;;2.08;;
81656;SDS011;71067;51.482;-0.580;2023-08-08T08:15:06;4.13;;;1.92;;
81656;SDS011;71067;51.482;-0.580;2023-08-08T08:17:32;4.35;;;1.88;;
81656;SDS011;71067;51.482;-0.580;2023-08-08T08:19:58;4.13;;;1.88;;
81656;SDS011;71067;51.482;-0.580;2023-08-08T08:22:23;4.30;;;2.25;;
81656;SDS011;71067;51.482;-0.580;2023-08-08T08:24:49;4.05;;;1.92;;
81656;SDS011;71067;51.482;-0.580;2023-08-08T08:27:15;2.88;;;1.50;;
81656;SDS011;71067;51.482;-0.580;2023-08-08T08:29:40;3.60;;;1.85;;
81656;SDS011;71067;51.482;-0.580;2023-08-08T08:32:06;4.55;;;1.90;;
81656;SDS011;71067;51.482;-0.580;2023-08-08T08:34:31;3.70;;;1.80;;
81656;SDS011;71067;51.482;-0.580;2023-08-08T08:36:57;3.15;;;1.70;;
81656;SDS011;71067;51.482;-0.580;2023-08-08T08:39:22;3.35;;;1.50;;
81656;SDS011;71067;51.482;-0.580;2023-08-08T08:41:48;4.05;;;1.80;;
81656;SDS011;71067;51.482;-0.580;2023-08-08T08:44:16;2.50;;;1.40;;
81656;SDS011;71067;51.482;-0.580;2023-08-08T08:46:42;4.15;;;1.60;;
81656;SDS011;71067;51.482;-0.580;2023-08-08T08:49:14;3.78;;;1.38;;
81656;SDS011;71067;51.482;-0.580;2023-08-08T08:51:42;2.67;;;1.20;;
81656;SDS011;71067;51.482;-0.580;2023-08-08T08:54:08;3.33;;;1.17;;
81656;SDS011;71067;51.482;-0.580;2023-08-08T08:56:35;3.78;;;1.63;;
81656;SDS011;71067;51.482;-0.580;2023-08-08T08:59:01;2.95;;;1.27;;
81656;SDS011;71067;51.482;-0.580;2023-08-08T09:01:27;3.35;;;1.30;;
81656;SDS011;71067;51.482;-0.580;2023-08-08T09:03:54;2.45;;;1.30;;
81656;SDS011;71067;51.482;-0.580;2023-08-08T09:06:22;2.90;;;1.40;;
81656;SDS011;71067;51.482;-0.580;2023-08-08T09:08:48;2.90;;;1.20;;
81656;SDS011;71067;51.482;-0.580;2023-08-08T09:11:14;2.67;;;1.42;;
81656;SDS011;71067;51.482;-0.580;2023-08-08T09:13:42;2.83;;;1.50;;
81656;SDS011;71067;51.482;-0.580;2023-08-08T09:16:08;2.40;;;1.60;;
81656;SDS011;71067;51.482;-0.580;2023-08-08T09:18:37;2.10;;;1.20;;
81656;SDS011;71067;51.482;-0.580;2023-08-08T09:21:07;1.98;;;1.00;;
81656;SDS011;71067;51.482;-0.580;2023-08-08T09:23:33;3.10;;;1.33;;
81656;SDS011;71067;51.482;-0.580;2023-08-08T09:25:58;2.35;;;1.50;;
81656;SDS011;71067;51.482;-0.580;2023-08-08T09:28:24;2.28;;;1.40;;
81656;SDS011;71067;51.482;-0.580;2023-08-08T09:30:50;2.58;;;1.63;;
81656;SDS011;71067;51.482;-0.580;2023-08-08T09:33:17;3.45;;;1.70;;
81656;SDS011;71067;51.482;-0.580;2023-08-08T09:35:46;2.78;;;1.92;;
81656;SDS011;71067;51.482;-0.580;2023-08-08T09:38:12;3.92;;;1.98;;
81656;SDS011;71067;51.482;-0.580;2023-08-08T09:40:38;3.92;;;1.70;;
81656;SDS011;71067;51.482;-0.580;2023-08-08T09:43:06;3.03;;;1.80;;
81656;SDS011;71067;51.482;-0.580;2023-08-08T09:45:36;7.45;;;3.70;;
81656;SDS011;71067;51.482;-0.580;2023-08-08T09:48:03;3.30;;;1.98;;
81656;SDS011;71067;51.482;-0.580;2023-08-08T09:50:29;4.05;;;1.90;;
81656;SDS011;71067;51.482;-0.580;2023-08-08T09:52:55;3.42;;;1.70;;
81656;SDS011;71067;51.482;-0.580;2023-08-08T09:55:21;3.05;;;1.63;;
81656;SDS011;71067;51.482;-0.580;2023-08-08T09:57:48;3.08;;;1.70;;
81656;SDS011;71067;51.482;-0.580;2023-08-08T10:00:14;3.13;;;1.70;;
81656;SDS011;71067;51.482;-0.580;2023-08-08T10:02:44;2.42;;;1.42;;
81656;SDS011;71067;51.482;-0.580;2023-08-08T10:05:11;5.13;;;1.70;;
81656;SDS011;71067;51.482;-0.580;2023-08-08T10:07:39;2.92;;;1.65;;
81656;SDS011;71067;51.482;-0.580;2023-08-08T10:10:06;3.38;;;1.67;;
81656;SDS011;71067;51.482;-0.580;2023-08-08T10:12:33;4.35;;;1.98;;
81656;SDS011;71067;51.482;-0.580;2023-08-08T10:14:58;3.05;;;1.50;;
81656;SDS011;71067;51.482;-0.580;2023-08-08T10:17:24;2.60;;;1.70;;
81656;SDS011;71067;51.482;-0.580;2023-08-08T10:19:56;3.67;;;2.03;;
81656;SDS011;71067;51.482;-0.580;2023-08-08T10:22:29;4.18;;;2.10;;
81656;SDS011;71067;51.482;-0.580;2023-08-08T10:24:54;4.18;;;1.95;;
81656;SDS011;71067;51.482;-0.580;2023-08-08T10:27:34;3.92;;;2.00;;
81656;SDS011;71067;51.482;-0.580;2023-08-08T10:30:03;3.03;;;1.73;;
81656;SDS011;71067;51.482;-0.580;2023-08-08T10:32:38;3.80;;;1.98;;
81656;SDS011;71067;51.482;-0.580;2023-08-08T10:35:06;4.35;;;2.05;;
81656;SDS011;71067;51.482;-0.580;2023-08-08T10:37:33;3.53;;;2.20;;
81656;SDS011;71067;51.482;-0.580;2023-08-08T10:39:59;4.63;;;2.50;;
81656;SDS011;71067;51.482;-0.580;2023-08-08T10:42:27;4.93;;;3.00;;
81656;SDS011;71067;51.482;-0.580;2023-08-08T10:44:57;4.75;;;2.30;;
81656;SDS011;71067;51.482;-0.580;2023-08-08T10:47:34;4.68;;;2.42;;
81656;SDS011;71067;51.482;-0.580;2023-08-08T10:52:32;4.70;;;2.92;;
81656;SDS011;71067;51.482;-0.580;2023-08-08T10:55:01;4.40;;;2.33;;
81656;SDS011;71067;51.482;-0.580;2023-08-08T10:57:28;4.35;;;2.78;;
81656;SDS011;71067;51.482;-0.580;2023-08-08T11:00:15;5.10;;;2.88;;
81656;SDS011;71067;51.482;-0.580;2023-08-08T11:02:41;4.47;;;2.50;;
81656;SDS011;71067;51.482;-0.580;2023-08-08T11:05:06;3.90;;;2.72;;
81656;SDS011;71067;51.482;-0.580;2023-08-08T11:07:32;6.00;;;2.88;;
81656;SDS011;71067;51.482;-0.580;2023-08-08T11:10:00;7.32;;;2.80;;
81656;SDS011;71067;51.482;-0.580;2023-08-08T11:12:26;3.63;;;2.78;;
81656;SDS011;71067;51.482;-0.580;2023-08-08T11:14:51;4.45;;;2.80;;
81656;SDS011;71067;51.482;-0.580;2023-08-08T11:17:17;4.88;;;2.83;;
81656;SDS011;71067;51.482;-0.580;2023-08-08T11:19:43;4.70;;;2.63;;
81656;SDS011;71067;51.482;-0.580;2023-08-08T11:22:09;4.60;;;2.30;;
81656;SDS011;71067;51.482;-0.580;2023-08-08T11:24:38;4.53;;;2.55;;
81656;SDS011;71067;51.482;-0.580;2023-08-08T11:27:03;4.32;;;2.60;;
81656;SDS011;71067;51.482;-0.580;2023-08-08T11:29:29;7.35;;;3.22;;
81656;SDS011;71067;51.482;-0.580;2023-08-08T11:32:04;5.07;;;2.63;;
81656;SDS011;71067;51.482;-0.580;2023-08-08T11:34:32;4.88;;;2.92;;
81656;SDS011;71067;51.482;-0.580;2023-08-08T11:36:59;7.28;;;2.85;;
81656;SDS011;71067;51.482;-0.580;2023-08-08T11:39:25;5.50;;;2.67;;
81656;SDS011;71067;51.482;-0.580;2023-08-08T11:41:52;3.67;;;2.33;;
81656;SDS011;71067;51.482;-0.580;2023-08-08T11:44:18;3.72;;;2.17;;
81656;SDS011;71067;51.482;-0.580;2023-08-08T11:46:46;3.13;;;1.63;;
81656;SDS011;71067;51.482;-0.580;2023-08-08T11:49:13;3.80;;;1.90;;
81656;SDS011;71067;51.482;-0.580;2023-08-08T11:51:42;7.00;;;2.33;;
81656;SDS011;71067;51.482;-0.580;2023-08-08T11:54:09;3.97;;;1.98;;
81656;SDS011;71067;51.482;-0.580;2023-08-08T11:56:35;3.50;;;2.03;;
81656;SDS011;71067;51.482;-0.580;2023-08-08T11:59:01;5.75;;;2.20;;
81656;SDS011;71067;51.482;-0.580;2023-08-08T12:01:28;4.85;;;2.10;;
81656;SDS011;71067;51.482;-0.580;2023-08-08T12:03:55;7.72;;;2.65;;
81656;SDS011;71067;51.482;-0.580;2023-08-08T12:06:21;4.03;;;2.35;;
81656;SDS011;71067;51.482;-0.580;2023-08-08T12:08:48;3.53;;;2.50;;
81656;SDS011;71067;51.482;-0.580;2023-08-08T12:11:14;4.40;;;2.80;;
81656;SDS011;71067;51.482;-0.580;2023-08-08T12:13:42;3.47;;;2.28;;
81656;SDS011;71067;51.482;-0.580;2023-08-08T12:16:10;4.43;;;2.10;;
81656;SDS011;71067;51.482;-0.580;2023-08-08T12:18:37;2.40;;;1.65;;
81656;SDS011;71067;51.482;-0.580;2023-08-08T12:21:03;4.40;;;1.80;;
81656;SDS011;71067;51.482;-0.580;2023-08-08T12:23:30;3.28;;;1.90;;
81656;SDS011;71067;51.482;-0.580;2023-08-08T12:25:57;3.42;;;1.60;;
81656;SDS011;71067;51.482;-0.580;2023-08-08T12:28:23;5.63;;;4.00;;
81656;SDS011;71067;51.482;-0.580;2023-08-08T12:30:48;5.43;;;3.95;;
81656;SDS011;71067;51.482;-0.580;2023-08-08T12:33:15;9.13;;;5.75;;
81656;SDS011;71067;51.482;-0.580;2023-08-08T12:35:40;7.75;;;5.22;;
81656;SDS011;71067;51.482;-0.580;2023-08-08T12:38:06;12.38;;;5.60;;
81656;SDS011;71067;51.482;-0.580;2023-08-08T12:40:31;31.67;;;16.13;;
81656;SDS011;71067;51.482;-0.580;2023-08-08T12:42:57;28.25;;;14.45;;
81656;SDS011;71067;51.482;-0.580;2023-08-08T12:45:22;18.63;;;9.13;;
81656;SDS011;71067;51.482;-0.580;2023-08-08T12:47:47;31.92;;;14.45;;
81656;SDS011;71067;51.482;-0.580;2023-08-08T12:50:13;46.50;;;22.88;;
81656;SDS011;71067;51.482;-0.580;2023-08-08T12:52:42;15.95;;;6.75;;
81656;SDS011;71067;51.482;-0.580;2023-08-08T12:55:11;17.20;;;7.63;;
81656;SDS011;71067;51.482;-0.580;2023-08-08T12:57:37;5.32;;;2.25;;
81656;SDS011;71067;51.482;-0.580;2023-08-08T13:00:03;6.22;;;2.50;;
81656;SDS011;71067;51.482;-0.580;2023-08-08T13:02:32;14.63;;;7.22;;
81656;SDS011;71067;51.482;-0.580;2023-08-08T13:05:01;7.50;;;4.78;;
81656;SDS011;71067;51.482;-0.580;2023-08-08T13:07:28;11.45;;;6.28;;
81656;SDS011;71067;51.482;-0.580;2023-08-08T13:09:54;8.57;;;4.00;;
81656;SDS011;71067;51.482;-0.580;2023-08-08T13:12:20;9.13;;;4.80;;
81656;SDS011;71067;51.482;-0.580;2023-08-08T13:14:46;7.47;;;3.65;;
81656;SDS011;71067;51.482;-0.580;2023-08-08T13:17:11;13.05;;;6.40;;
81656;SDS011;71067;51.482;-0.580;2023-08-08T13:19:37;8.48;;;4.28;;
81656;SDS011;71067;51.482;-0.580;2023-08-08T13:22:02;12.17;;;5.60;;
81656;SDS011;71067;51.482;-0.580;2023-08-08T13:24:27;20.80;;;11.77;;
81656;SDS011;71067;51.482;-0.580;2023-08-08T13:26:54;16.05;;;8.95;;
81656;SDS011;71067;51.482;-0.580;2023-08-08T13:29:19;17.77;;;8.65;;
81656;SDS011;71067;51.482;-0.580;2023-08-08T13:31:44;28.98;;;11.63;;
81656;SDS011;71067;51.482;-0.580;2023-08-08T13:34:10;14.80;;;6.07;;
81656;SDS011;71067;51.482;-0.580;2023-08-08T13:36:35;17.27;;;7.25;;
81656;SDS011;71067;51.482;-0.580;2023-08-08T13:39:01;4.93;;;2.70;;
81656;SDS011;71067;51.482;-0.580;2023-08-08T13:41:27;16.33;;;7.72;;
81656;SDS011;71067;51.482;-0.580;2023-08-08T13:43:53;9.82;;;6.13;;
81656;SDS011;71067;51.482;-0.580;2023-08-08T13:46:18;5.93;;;3.60;;
81656;SDS011;71067;51.482;-0.580;2023-08-08T13:48:45;6.97;;;4.22;;
81656;SDS011;71067;51.482;-0.580;2023-08-08T13:51:10;16.30;;;9.38;;
81656;SDS011;71067;51.482;-0.580;2023-08-08T13:53:35;17.23;;;9.93;;
81656;SDS011;71067;51.482;-0.580;2023-08-08T13:56:02;7.13;;;4.57;;
81656;SDS011;71067;51.482;-0.580;2023-08-08T13:58:29;7.72;;;4.00;;
81656;SDS011;71067;51.482;-0.580;2023-08-08T14:00:54;14.63;;;6.32;;
81656;SDS011;71067;51.482;-0.580;2023-08-08T14:03:20;15.20;;;6.80;;
81656;SDS011;71067;51.482;-0.580;2023-08-08T14:05:46;13.10;;;6.72;;
81656;SDS011;71067;51.482;-0.580;2023-08-08T14:08:12;9.65;;;3.58;;
81656;SDS011;71067;51.482;-0.580;2023-08-08T14:10:40;5.30;;;2.70;;
81656;SDS011;71067;51.482;-0.580;2023-08-08T14:13:05;5.25;;;2.53;;
81656;SDS011;71067;51.482;-0.580;2023-08-08T14:15:31;7.13;;;2.75;;
81656;SDS011;71067;51.482;-0.580;2023-08-08T14:17:58;7.25;;;3.00;;
81656;SDS011;71067;51.482;-0.580;2023-08-08T14:20:23;8.52;;;3.30;;
81656;SDS011;71067;51.482;-0.580;2023-08-08T14:22:49;8.57;;;4.23;;
81656;SDS011;71067;51.482;-0.580;2023-08-08T14:25:14;7.93;;;3.30;;
81656;SDS011;71067;51.482;-0.580;2023-08-08T14:27:40;3.97;;;2.10;;
81656;SDS011;71067;51.482;-0.580;2023-08-08T14:30:05;3.95;;;2.30;;
81656;SDS011;71067;51.482;-0.580;2023-08-08T14:32:32;5.07;;;2.38;;
81656;SDS011;71067;51.482;-0.580;2023-08-08T14:34:57;7.72;;;2.70;;
81656;SDS011;71067;51.482;-0.580;2023-08-08T14:37:23;3.47;;;1.67;;